createdAt,value
2022-12-20T06:26:10.677Z,-4.06
2022-12-20T06:29:17.610Z,-3.90
2022-12-20T06:32:20.937Z,-3.69
2022-12-20T06:35:24.724Z,-3.79
2022-12-20T06:38:29.279Z,-3.78
2022-12-20T06:41:32.285Z,-3.80
2022-12-20T06:44:35.163Z,-3.65
2022-12-20T06:47:39.234Z,-3.62
2022-12-20T06:50:42.110Z,-3.60
2022-12-20T06:53:45.330Z,-3.74
2022-12-20T06:56:48.211Z,-3.77
2022-12-20T06:59:52.218Z,-3.92
2022-12-20T07:02:55.087Z,-4.16
2022-12-20T07:05:58.426Z,-4.03
2022-12-20T07:09:01.112Z,-3.73
2022-12-20T07:12:05.383Z,-3.92
2022-12-20T07:15:08.770Z,-3.92
2022-12-20T07:18:11.836Z,-3.87
2022-12-20T07:21:17.306Z,-3.78
2022-12-20T07:24:20.687Z,-3.76
2022-12-20T07:27:23.490Z,-3.75
2022-12-20T07:30:26.898Z,-3.35
2022-12-20T07:33:30.460Z,-3.10
2022-12-20T07:36:33.600Z,-3.12
2022-12-20T07:39:36.378Z,-2.72
2022-12-20T07:42:46.172Z,-2.28
2022-12-20T07:45:57.572Z,-2.56
2022-12-20T07:49:00.657Z,-2.83
2022-12-20T07:52:05.125Z,-2.60
2022-12-20T07:55:13.995Z,-2.18
2022-12-20T07:58:18.899Z,-1.93
2022-12-20T08:01:22.215Z,-1.59
2022-12-20T08:04:28.255Z,-1.64
2022-12-20T08:07:31.950Z,-1.45
2022-12-20T08:10:36.997Z,-1.67
2022-12-20T08:13:45.993Z,-1.23
2022-12-20T08:16:49.695Z,-1.44
2022-12-20T08:19:52.455Z,-1.23
2022-12-20T08:22:55.428Z,-1.27
2022-12-20T08:26:01.394Z,-1.41
2022-12-20T08:29:04.553Z,-1.21
2022-12-20T08:32:07.606Z,-0.94
2022-12-20T08:35:10.898Z,-1.04
2022-12-20T08:38:13.795Z,-1.04
2022-12-20T08:41:18.295Z,-1.03
2022-12-20T09:54:05.505Z,0.21
2022-12-20T09:58:24.740Z,0.19
2022-12-20T10:01:38.705Z,0.51
2022-12-20T10:04:43.520Z,0.66
2022-12-20T10:08:09.522Z,0.50
2022-12-20T10:11:50.140Z,0.48
2022-12-20T10:15:02.839Z,0.65
2022-12-20T10:18:50.580Z,0.77
2022-12-20T10:22:27.467Z,0.90
2022-12-20T10:25:52.194Z,0.90
2022-12-20T10:28:55.213Z,0.59
2022-12-20T10:32:01.733Z,0.98
2022-12-20T10:35:10.883Z,0.91
2022-12-20T10:42:38.494Z,0.98
2022-12-20T10:46:09.623Z,1.03
2022-12-20T10:49:21.733Z,0.86
2022-12-20T10:52:25.217Z,0.95
2022-12-20T10:55:38.394Z,0.87
2022-12-20T10:58:42.363Z,1.03
2022-12-20T11:01:48.168Z,0.66
2022-12-20T11:05:14.735Z,0.62
2022-12-20T11:08:39.240Z,0.50
2022-12-20T11:23:24.496Z,1.13
2022-12-20T11:27:15.409Z,0.81
2022-12-20T11:30:44.931Z,0.77
2022-12-20T11:34:18.865Z,0.79
2022-12-20T11:37:25.427Z,0.84
2022-12-20T11:40:35.898Z,1.02
2022-12-20T11:44:23.272Z,0.72
2022-12-20T11:55:34.702Z,0.88
2022-12-20T11:58:53.111Z,0.96
2022-12-20T12:02:00.030Z,0.79
2022-12-20T12:05:07.738Z,0.62
2022-12-20T12:08:19.998Z,0.44
2022-12-20T12:12:05.761Z,0.42
2022-12-20T12:15:35.254Z,0.42
2022-12-20T12:18:42.140Z,0.28
2022-12-20T12:21:56.422Z,0.43
2022-12-20T12:25:21.846Z,0.78
2022-12-20T12:29:09.668Z,0.71
2022-12-20T12:32:57.146Z,0.96
2022-12-20T12:36:49.587Z,0.86
2022-12-20T12:41:01.279Z,0.84
2022-12-20T12:45:26.750Z,0.62
2022-12-20T12:49:13.772Z,0.75
2022-12-20T12:53:22.972Z,0.60
2022-12-20T12:57:13.023Z,0.69
2022-12-20T13:00:53.014Z,0.62
2022-12-20T13:03:59.243Z,0.71
2022-12-20T13:07:43.867Z,0.61
2022-12-20T13:11:04.620Z,0.98
2022-12-20T13:14:26.061Z,0.72
2022-12-20T13:17:29.054Z,0.71
2022-12-20T13:20:34.751Z,0.50
2022-12-20T13:23:44.921Z,0.52
2022-12-20T13:26:53.717Z,0.48
2022-12-20T13:33:49.658Z,0.82
2022-12-20T13:37:00.935Z,0.67
2022-12-20T13:40:06.298Z,0.72
2022-12-20T13:43:23.553Z,0.82
2022-12-20T13:46:58.809Z,0.57
2022-12-20T13:50:52.421Z,0.65
2022-12-20T13:53:59.771Z,0.40
2022-12-20T13:57:09.920Z,0.37
2022-12-20T14:00:19.108Z,0.51
2022-12-20T14:03:26.678Z,0.45
2022-12-20T14:06:29.499Z,0.47
2022-12-20T14:09:35.836Z,0.31
2022-12-20T14:12:45.277Z,0.25
2022-12-20T14:15:48.850Z,0.42
2022-12-20T14:19:03.536Z,0.13
2022-12-20T14:22:08.652Z,0.22
2022-12-20T14:25:16.660Z,0.16
2022-12-20T14:28:27.600Z,0.27
2022-12-20T14:31:33.575Z,-0.06
2022-12-20T14:34:41.760Z,-0.27
2022-12-20T14:37:54.034Z,-0.14
2022-12-20T14:40:57.577Z,0.01
2022-12-20T14:44:07.140Z,-0.04
2022-12-20T14:47:13.282Z,-0.15
2022-12-20T15:39:57.692Z,-0.35
2022-12-20T15:43:00.908Z,0.41
2022-12-20T15:46:03.889Z,0.07
2022-12-20T15:49:06.920Z,-0.07
2022-12-20T15:52:18.701Z,-0.04
2022-12-20T15:55:22.122Z,-0.09
2022-12-20T15:58:26.380Z,-0.21
2022-12-20T16:01:40.313Z,-0.42
2022-12-20T16:04:44.704Z,0.05
2022-12-20T16:07:47.628Z,0.13
2022-12-20T16:10:52.340Z,0.04
2022-12-20T16:13:56.137Z,-0.08
2022-12-20T16:16:59.323Z,-0.05
2022-12-20T16:20:02.324Z,-0.12
2022-12-20T16:23:07.658Z,-0.15
2022-12-20T16:26:17.764Z,-0.53
2022-12-20T16:29:41.553Z,-0.68
2022-12-20T16:33:04.883Z,-0.22
2022-12-20T16:36:11.900Z,-0.20
2022-12-20T16:39:14.775Z,-0.27
2022-12-20T16:42:22.962Z,-0.31
2022-12-20T16:45:29.012Z,-0.45
2022-12-20T16:48:55.324Z,-0.35
2022-12-20T17:18:54.516Z,-0.33
2022-12-20T17:25:22.827Z,-0.44
2022-12-20T18:22:44.600Z,-0.90
2022-12-20T18:25:47.655Z,-0.95
2022-12-20T18:28:54.888Z,-0.84
2022-12-20T18:31:58.443Z,-0.83
2022-12-20T18:35:01.446Z,-0.81
2022-12-20T18:38:05.079Z,-0.63
2022-12-20T18:41:14.437Z,-0.61
2022-12-20T18:44:17.639Z,-0.75
2022-12-20T18:47:20.513Z,-0.76
2022-12-20T18:50:26.754Z,-0.76
2022-12-20T18:53:35.338Z,-0.77
2022-12-20T18:56:38.720Z,-0.85
2022-12-20T18:59:41.686Z,-0.86
2022-12-20T19:02:45.100Z,-0.76
2022-12-20T19:05:55.099Z,-0.76
2022-12-20T19:09:07.310Z,-0.83
2022-12-20T19:12:10.302Z,-0.94
2022-12-20T19:15:14.580Z,-1.01
2022-12-20T19:18:17.601Z,-0.80
2022-12-20T19:21:24.439Z,-0.69
2022-12-20T19:24:53.616Z,-0.73
2022-12-20T19:28:28.382Z,-0.72
2022-12-20T19:31:44.553Z,-0.71
2022-12-20T19:34:59.236Z,-0.67
2022-12-20T19:38:02.934Z,-0.81
2022-12-20T19:41:05.969Z,-0.73
2022-12-20T19:44:09.531Z,-0.68
2022-12-20T19:47:13.239Z,-0.64
2022-12-20T19:50:17.207Z,-0.82
2022-12-20T19:53:20.001Z,-0.66
2022-12-20T19:56:28.947Z,-0.99
2022-12-20T19:59:31.797Z,-0.68
2022-12-20T20:02:35.136Z,-0.85
2022-12-20T20:05:38.618Z,-1.00
2022-12-20T20:08:41.843Z,-0.91
2022-12-20T20:11:45.061Z,-0.78
2022-12-20T20:14:48.192Z,-0.72
2022-12-20T20:17:51.670Z,-0.70
2022-12-20T20:20:57.013Z,-0.86
2022-12-20T20:24:00.132Z,-0.77
2022-12-20T20:27:02.939Z,-1.01
2022-12-20T20:30:07.194Z,-0.82
2022-12-20T20:33:12.243Z,-0.86
2022-12-20T20:51:43.561Z,-0.81
2022-12-20T20:54:46.866Z,-0.84
2022-12-20T20:57:50.531Z,-0.81
2022-12-20T21:01:02.406Z,-0.82
2022-12-20T21:04:05.619Z,-0.83
2022-12-20T21:22:01.605Z,-0.82
2022-12-20T21:25:05.933Z,-0.86
2022-12-20T21:28:19.335Z,-0.82
2022-12-20T21:31:24.421Z,-0.74
2022-12-20T22:04:27.536Z,-0.78
2022-12-20T22:07:30.576Z,-0.78
2022-12-20T22:10:33.500Z,-0.80
2022-12-20T22:13:41.649Z,-0.81
2022-12-20T22:16:45.602Z,-0.81
2022-12-20T22:19:50.500Z,-0.76
2022-12-20T22:22:53.976Z,-0.80
2022-12-20T22:25:57.175Z,-0.78
2022-12-20T22:29:03.225Z,-0.84
2022-12-20T22:32:06.446Z,-0.79
2022-12-20T22:35:09.260Z,-0.77
2022-12-20T22:38:12.284Z,-0.71
2022-12-20T22:41:17.993Z,-0.71
2022-12-20T22:44:24.103Z,-0.74
2022-12-20T22:47:26.765Z,-0.77
2022-12-20T22:50:29.704Z,-0.81
2022-12-20T22:53:33.907Z,-0.73
2022-12-20T22:56:36.863Z,-0.72
2022-12-20T22:59:39.628Z,-0.81
2022-12-20T23:02:42.849Z,-0.70
2022-12-20T23:05:56.629Z,-0.70
2022-12-20T23:08:59.717Z,-0.68
2022-12-20T23:12:21.230Z,-0.68
2022-12-20T23:15:42.281Z,-0.70
2022-12-20T23:18:45.047Z,-0.75
2022-12-20T23:22:20.187Z,-0.77
2022-12-20T23:25:22.880Z,-0.81
2022-12-20T23:28:25.935Z,-0.75
2022-12-20T23:31:28.954Z,-0.89
2022-12-20T23:34:31.941Z,-1.05
2022-12-20T23:37:34.639Z,-0.68
2022-12-20T23:40:41.662Z,-0.72
2022-12-20T23:43:48.528Z,-0.64
2022-12-20T23:46:53.236Z,-0.76
2022-12-20T23:49:56.023Z,-0.70
2022-12-20T23:56:46.749Z,-0.75
2022-12-20T23:59:51.001Z,-0.70
